Time;durP1;ratioP1;P1;durP2;ratioP2;P2;SDS_P1;SDS_P2;PMS_P1;PMS_P2;Temp;Humidity;BMP_temperature;BMP_pressure;BME280_temperature;BME280_humidity;BME280_pressure;Samples;Min_cycle;Max_cycle;Signal;HPM_P1;HPM_P2
2022/03/23 00:00:26;;;;;;;0.87;0.87;;;11.00;99.90;11.50;102934.00;;;;5014545;28;20178;-65
2022/03/23 00:02:52;;;;;;;0.20;0.20;;;11.10;99.90;11.30;102926.00;;;;5014896;28;20268;-65
2022/03/23 00:05:21;;;;;;;0.20;0.20;;;11.00;99.90;11.00;102922.00;;;;5016307;28;20185;-65
2022/03/23 00:07:49;;;;;;;0.20;0.20;;;10.80;99.90;10.60;102918.00;;;;5029190;28;20203;-64
2022/03/23 00:10:17;;;;;;;0.20;0.20;;;10.60;99.90;10.80;102930.00;;;;5050695;28;20198;-65
2022/03/23 00:12:44;;;;;;;0.17;0.17;;;10.50;99.90;10.80;102924.00;;;;5034416;28;20208;-65
2022/03/23 00:15:13;;;;;;;0.17;0.17;;;10.40;99.90;10.50;102927.00;;;;5048909;28;20179;-65
2022/03/23 00:17:42;;;;;;;0.20;0.20;;;10.40;99.90;11.00;102937.00;;;;5035808;28;20213;-65
2022/03/23 00:20:11;;;;;;;0.20;0.20;;;10.50;99.90;10.70;102937.00;;;;5049960;28;20635;-65
2022/03/23 00:22:39;;;;;;;0.50;0.50;;;10.40;99.90;10.30;102896.00;;;;5050543;28;20192;-65
2022/03/23 00:25:06;;;;;;;0.20;0.20;;;10.10;99.90;10.20;102927.00;;;;5050004;28;20180;-65
2022/03/23 00:27:35;;;;;;;0.20;0.20;;;10.00;99.90;10.50;102926.00;;;;5050828;28;20175;-66
2022/03/23 00:30:01;;;;;;;0.10;0.10;;;10.10;99.90;10.20;102923.00;;;;5050300;28;20203;-65
2022/03/23 00:32:35;;;;;;;1.00;1.00;;;9.90;99.90;10.40;102923.00;;;;5032928;28;20243;-66
2022/03/23 00:35:06;;;;;;;0.20;0.20;;;10.00;99.90;9.90;102918.00;;;;5050355;28;20169;-65
2022/03/23 00:37:32;;;;;;;0.20;0.20;;;9.80;99.90;9.80;102912.00;;;;5034539;28;20708;-66
2022/03/23 00:40:08;;;;;;;3.60;3.50;;;9.60;99.90;9.70;102891.00;;;;5050237;28;20198;-65
2022/03/23 00:42:40;;;;;;;0.27;0.27;;;9.50;99.90;10.00;102875.00;;;;5034398;28;20190;-65
2022/03/23 00:45:07;;;;;;;0.60;0.60;;;9.60;99.90;9.60;102905.00;;;;5034322;28;20171;-65
2022/03/23 00:47:35;;;;;;;0.10;0.10;;;9.50;99.90;9.50;102907.00;;;;5049884;28;20175;-65
2022/03/23 00:50:04;;;;;;;0.20;0.20;;;9.50;99.90;9.60;102903.00;;;;5050081;28;20179;-65
2022/03/23 00:52:33;;;;;;;0.30;0.30;;;9.30;99.90;9.50;102907.00;;;;5034472;28;20659;-65
2022/03/23 00:54:59;;;;;;;0.20;0.20;;;9.40;99.90;9.00;102898.00;;;;5048806;28;20626;-65
2022/03/23 00:57:27;;;;;;;1.50;1.50;;;9.20;99.90;9.00;102891.00;;;;5049670;28;20666;-65
2022/03/23 00:59:53;;;;;;;0.20;0.20;;;9.10;99.90;9.10;102887.00;;;;5032527;28;20190;-65
2022/03/23 01:02:19;;;;;;;0.70;0.70;;;8.90;99.90;9.20;102885.00;;;;5033324;28;20666;-64
2022/03/23 01:04:44;;;;;;;0.20;0.20;;;9.00;99.90;9.50;102899.00;;;;5034754;28;20195;-65
2022/03/23 01:07:14;;;;;;;0.20;0.20;;;9.10;99.90;9.30;102887.00;;;;5049668;28;20203;-66
2022/03/23 01:09:40;;;;;;;0.20;0.20;;;9.00;99.90;9.30;102898.00;;;;5049733;28;20186;-65
2022/03/23 01:12:13;;;;;;;16.60;15.53;;;9.00;99.90;9.40;102809.00;;;;5033828;28;20220;-65
2022/03/23 01:14:42;;;;;;;1.80;1.80;;;9.00;99.90;8.90;102886.00;;;;5031658;28;20521;-64
2022/03/23 01:17:08;;;;;;;0.20;0.20;;;8.90;99.90;9.10;102887.00;;;;5033815;28;20193;-64
2022/03/23 01:19:44;;;;;;;0.20;0.20;;;8.80;99.90;9.00;102880.00;;;;5049548;28;20216;-64
2022/03/23 01:22:10;;;;;;;0.20;0.20;;;9.00;99.90;8.90;102872.00;;;;5032491;28;20754;-64
2022/03/23 01:24:36;;;;;;;0.57;0.57;;;8.80;99.90;8.90;102824.00;;;;5033486;28;20210;-64
2022/03/23 01:27:04;;;;;;;0.20;0.20;;;8.70;99.90;8.80;102871.00;;;;5033546;28;20214;-64
2022/03/23 01:29:30;;;;;;;0.70;0.70;;;8.60;99.90;8.90;102876.00;;;;5033972;28;20174;-64
2022/03/23 01:32:00;;;;;;;0.20;0.20;;;8.60;99.90;8.90;102875.00;;;;5034181;28;20686;-64
2022/03/23 01:34:29;;;;;;;0.83;0.83;;;8.60;99.90;9.20;102872.00;;;;5032513;28;20201;-65
2022/03/23 01:36:55;;;;;;;0.20;0.20;;;8.80;99.90;8.80;102853.00;;;;5033760;28;20189;-64
2022/03/23 01:39:23;;;;;;;0.40;0.40;;;8.80;99.90;8.70;102874.00;;;;5033771;28;20236;-64
2022/03/23 01:41:51;;;;;;;0.20;0.20;;;8.60;99.90;9.00;102868.00;;;;5049168;28;20183;-64
2022/03/23 01:44:22;;;;;;;0.20;0.20;;;8.70;99.90;9.10;102869.00;;;;5034219;28;20186;-64
2022/03/23 01:47:02;;;;;;;0.40;0.40;;;8.70;99.90;8.70;102865.00;;;;5049354;28;20182;-64
2022/03/23 01:49:30;;;;;;;0.20;0.20;;;8.60;99.90;8.70;102857.00;;;;5034319;28;20189;-63
2022/03/23 01:51:56;;;;;;;1.00;1.00;;;8.50;99.90;8.40;102847.00;;;;5034085;28;20705;-64
2022/03/23 01:54:22;;;;;;;0.20;0.20;;;8.30;99.90;8.70;102862.00;;;;5051870;28;20192;-64
2022/03/23 01:56:50;;;;;;;0.40;0.40;;;8.30;99.90;8.40;102859.00;;;;5050899;28;20179;-63
2022/03/23 01:59:20;;;;;;;0.30;0.30;;;8.40;99.90;8.00;102845.00;;;;5048728;28;20184;-64
2022/03/23 02:01:54;;;;;;;12.10;10.13;;;8.20;99.90;8.20;102843.00;;;;5050388;28;20171;-64
2022/03/23 02:04:21;;;;;;;0.43;0.43;;;8.10;99.90;8.20;102851.00;;;;5034068;28;20178;-64
2022/03/23 02:06:48;;;;;;;0.30;0.30;;;8.00;99.90;8.10;102801.00;;;;5033688;28;20182;-63
2022/03/23 02:09:16;;;;;;;0.20;0.20;;;8.00;99.90;8.00;102841.00;;;;5033767;28;20181;-65
2022/03/23 02:11:42;;;;;;;0.30;0.30;;;7.90;99.90;8.70;102768.00;;;;5049174;28;20213;-65
2022/03/23 02:14:10;;;;;;;0.30;0.30;;;8.20;99.90;8.50;102785.00;;;;5048707;28;20633;-64
2022/03/23 02:16:45;;;;;;;0.50;0.50;;;8.20;99.90;8.70;102755.00;;;;5036643;28;20206;-64
2022/03/23 02:19:12;;;;;;;0.40;0.40;;;8.30;99.90;8.80;102840.00;;;;5033264;28;20224;-64
2022/03/23 02:21:46;;;;;;;1.97;1.87;;;8.50;99.90;9.10;102789.00;;;;5050082;28;20185;-64
2022/03/23 02:24:16;;;;;;;7.17;6.43;;;8.70;99.90;9.40;102851.00;;;;5050710;28;20188;-64
2022/03/23 02:26:43;;;;;;;0.30;0.30;;;9.00;99.90;8.80;102838.00;;;;5050675;28;20316;-64
2022/03/23 02:29:14;;;;;;;0.30;0.30;;;8.90;99.90;8.80;102839.00;;;;5050664;28;20181;-64
2022/03/23 02:31:42;;;;;;;0.37;0.37;;;8.70;99.90;8.60;102823.00;;;;5046186;28;20225;-64
2022/03/23 02:34:13;;;;;;;2.30;2.20;;;8.60;99.90;8.80;102829.00;;;;5034258;28;20179;-64
2022/03/23 02:36:44;;;;;;;1.07;1.07;;;8.90;99.90;8.60;102823.00;;;;5032688;28;20235;-65
2022/03/23 02:39:20;;;;;;;0.93;0.93;;;8.70;99.90;8.30;102833.00;;;;5032485;28;20218;-64
2022/03/23 02:41:57;;;;;;;0.20;0.20;;;8.40;99.90;8.40;102823.00;;;;5047943;28;20208;-65
2022/03/23 02:44:29;;;;;;;0.30;0.30;;;8.30;99.90;8.30;102826.00;;;;5048349;28;20188;-65
2022/03/23 02:46:56;;;;;;;0.20;0.20;;;8.30;99.90;7.60;102821.00;;;;5033240;28;20276;-65
2022/03/23 02:49:22;;;;;;;0.20;0.20;;;8.00;99.90;8.00;102805.00;;;;5032801;28;20177;-64
2022/03/23 02:51:49;;;;;;;0.20;0.20;;;7.80;99.90;8.10;102822.00;;;;5048482;28;20235;-65
2022/03/23 03:03:28;;;;;;;0.30;0.30;;;7.70;99.90;8.20;102815.00;;;;5032815;28;20227;-64
2022/03/23 03:05:55;;;;;;;0.40;0.40;;;7.80;99.90;8.10;102820.00;;;;5048559;28;20209;-64
2022/03/23 03:08:46;;;;;;;0.30;0.30;;;7.80;99.90;8.10;102826.00;;;;5047785;28;20192;-63
2022/03/23 03:11:19;;;;;;;0.30;0.30;;;8.00;99.90;7.80;102819.00;;;;5046665;28;20176;-64
2022/03/23 03:13:51;;;;;;;3.50;3.30;;;7.80;99.90;7.90;102812.00;;;;5049169;28;20649;-64
2022/03/23 03:16:29;;;;;;;0.70;0.70;;;7.80;99.90;7.60;102816.00;;;;5048668;28;20200;-64
2022/03/23 03:19:24;;;;;;;0.43;0.43;;;7.80;99.90;7.60;102803.00;;;;5050032;28;20654;-64
2022/03/23 03:21:57;;;;;;;0.30;0.30;;;7.60;99.90;7.80;102826.00;;;;5004545;28;20192;-64
2022/03/23 03:24:40;;;;;;;0.40;0.40;;;7.60;99.90;7.60;102778.00;;;;5036389;28;20189;-64
2022/03/23 03:27:06;;;;;;;0.60;0.60;;;7.50;99.90;7.90;102827.00;;;;5036202;28;20176;-64
2022/03/23 03:30:02;;;;;;;1.47;1.47;;;7.60;99.90;7.50;102831.00;;;;5036538;28;20655;-65
2022/03/23 03:32:46;;;;;;;0.40;0.40;;;7.60;99.90;7.30;102827.00;;;;5034533;28;20281;-65
2022/03/23 03:36:20;;;;;;;5.40;5.20;;;7.40;99.90;7.50;102829.00;;;;5051581;28;20176;-65
2022/03/23 03:38:46;;;;;;;0.40;0.40;;;7.40;99.90;7.50;102829.00;;;;5035314;28;20188;-65
2022/03/23 03:41:26;;;;;;;0.40;0.40;;;7.40;99.90;7.10;102755.00;;;;5051721;28;20189;-65
2022/03/23 03:43:56;;;;;;;0.40;0.40;;;7.20;99.90;7.30;102824.00;;;;5033899;28;20192;-64
2022/03/23 03:46:22;;;;;;;0.40;0.40;;;7.20;99.90;7.20;102808.00;;;;5051213;28;20176;-64
2022/03/23 03:48:48;;;;;;;0.40;0.40;;;7.10;99.90;7.50;102825.00;;;;5051859;28;20175;-64
2022/03/23 03:51:14;;;;;;;0.40;0.40;;;7.20;99.90;7.60;102820.00;;;;5051358;28;20188;-64
2022/03/23 03:53:42;;;;;;;0.40;0.40;;;7.30;99.90;7.60;102767.00;;;;5051409;28;20554;-65
2022/03/23 03:56:09;;;;;;;0.50;0.50;;;7.40;99.90;7.40;102819.00;;;;5051053;28;20188;-65
2022/03/23 03:58:44;;;;;;;0.43;0.43;;;7.30;99.90;7.10;102815.00;;;;5036115;28;20175;-65
2022/03/23 04:01:10;;;;;;;1.40;1.40;;;7.30;99.90;7.20;102810.00;;;;5049633;28;20176;-64
2022/03/23 04:03:41;;;;;;;2.10;1.73;;;7.20;99.90;7.10;102827.00;;;;5035645;28;20673;-64
2022/03/23 04:06:12;;;;;;;0.50;0.50;;;7.10;99.90;7.00;102813.00;;;;5050914;28;20177;-64
2022/03/23 04:08:46;;;;;;;0.50;0.50;;;7.10;99.90;7.00;102777.00;;;;5050959;28;20280;-65
2022/03/23 04:11:12;;;;;;;0.50;0.50;;;7.00;99.90;7.00;102761.00;;;;5035393;28;20627;-64
2022/03/23 04:13:48;;;;;;;0.50;0.50;;;7.00;99.90;7.20;102806.00;;;;5034759;28;20188;-65
2022/03/23 04:16:19;;;;;;;0.50;0.50;;;7.00;99.90;6.70;102811.00;;;;5035256;28;20176;-64
2022/03/23 04:18:52;;;;;;;0.60;0.60;;;7.00;99.90;7.00;102803.00;;;;5050559;28;20185;-64
2022/03/23 04:21:18;;;;;;;0.60;0.60;;;6.90;99.90;7.00;102810.00;;;;5050653;28;20192;-63
2022/03/23 04:23:49;;;;;;;2.60;2.50;;;6.90;99.90;6.90;102807.00;;;;5035321;28;20177;-63
2022/03/23 04:26:15;;;;;;;0.60;0.60;;;6.90;99.90;6.80;102807.00;;;;5035084;28;20210;-63
2022/03/23 04:28:41;;;;;;;0.60;0.60;;;6.90;99.90;6.80;102810.00;;;;5050644;28;20231;-63
2022/03/23 04:31:07;;;;;;;1.43;1.43;;;6.80;99.90;6.80;102805.00;;;;5049379;28;20204;-63
2022/03/23 04:33:33;;;;;;;0.60;0.60;;;6.80;99.90;6.60;102810.00;;;;5050648;28;20183;-64
2022/03/23 04:35:59;;;;;;;0.60;0.60;;;6.80;99.90;6.60;102796.00;;;;5050503;28;20180;-63
2022/03/23 04:38:26;;;;;;;0.50;0.50;;;6.70;99.90;6.40;102806.00;;;;5050628;28;20184;-63
2022/03/23 04:40:53;;;;;;;0.80;0.80;;;6.60;99.90;6.50;102791.00;;;;5035536;28;20180;-63
2022/03/23 04:43:24;;;;;;;0.50;0.50;;;6.60;99.90;6.40;102807.00;;;;5034319;28;20189;-62
2022/03/23 04:45:52;;;;;;;0.67;0.67;;;6.60;99.90;6.70;102802.00;;;;5048591;28;20274;-64
2022/03/23 04:48:18;;;;;;;0.50;0.50;;;6.60;99.90;6.90;102816.00;;;;5050205;28;20634;-64
2022/03/23 04:50:48;;;;;;;0.90;0.90;;;6.80;99.90;6.80;102817.00;;;;5050142;28;20167;-63
2022/03/23 04:53:15;;;;;;;1.83;1.83;;;6.80;99.90;7.10;102828.00;;;;5035438;28;20220;-63
2022/03/23 04:55:41;;;;;;;0.83;0.83;;;7.00;99.90;7.20;102824.00;;;;5050402;28;20202;-64
2022/03/23 04:58:11;;;;;;;0.50;0.50;;;7.10;99.90;6.40;102811.00;;;;5049578;28;20265;-63
2022/03/23 05:00:40;;;;;;;0.73;0.73;;;6.80;99.90;6.70;102798.00;;;;5049412;28;20185;-64
2022/03/23 05:03:16;;;;;;;0.50;0.50;;;6.80;99.90;6.70;102816.00;;;;5034359;28;20194;-64
2022/03/23 05:05:43;;;;;;;0.60;0.60;;;6.70;99.90;6.50;102805.00;;;;5049886;28;20190;-63
2022/03/23 05:08:12;;;;;;;0.60;0.60;;;6.70;99.90;6.50;102805.00;;;;5034193;28;20184;-63
2022/03/23 05:10:40;;;;;;;0.90;0.90;;;6.60;99.90;6.20;102751.00;;;;5034699;28;20198;-63
2022/03/23 05:13:06;;;;;;;0.50;0.50;;;6.60;99.90;6.60;102807.00;;;;5049528;28;20608;-63
2022/03/23 05:15:32;;;;;;;0.53;0.53;;;6.60;99.90;6.20;102801.00;;;;5034388;28;20184;-64
2022/03/23 05:17:58;;;;;;;0.60;0.60;;;6.60;99.90;6.70;102810.00;;;;5049612;28;20175;-64
2022/03/23 05:20:24;;;;;;;0.60;0.60;;;6.60;99.90;6.40;102748.00;;;;5049187;28;20225;-64
2022/03/23 05:22:50;;;;;;;2.17;2.10;;;6.60;99.90;6.00;102797.00;;;;5033981;28;20186;-64
2022/03/23 05:25:16;;;;;;;0.60;0.60;;;6.50;99.90;6.00;102800.00;;;;5049695;28;20639;-64
2022/03/23 05:27:48;;;;;;;0.50;0.50;;;6.40;99.90;5.90;102797.00;;;;5048582;28;20174;-64
2022/03/23 05:30:22;;;;;;;0.70;0.70;;;6.30;99.90;6.10;102791.00;;;;5032240;28;20277;-64
2022/03/23 05:32:53;;;;;;;0.50;0.50;;;6.30;99.90;6.10;102788.00;;;;5032758;28;20300;-63
2022/03/23 05:35:25;;;;;;;0.60;0.60;;;6.20;99.90;6.00;102799.00;;;;5049252;28;20203;-63
2022/03/23 05:37:53;;;;;;;0.57;0.57;;;6.20;99.90;6.10;102805.00;;;;5031907;28;20549;-63
2022/03/23 05:40:21;;;;;;;0.50;0.50;;;6.20;99.90;6.10;102806.00;;;;5049088;28;20184;-63
2022/03/23 05:42:48;;;;;;;2.10;1.93;;;6.20;99.90;6.00;102814.00;;;;5015129;28;20566;-63
2022/03/23 05:45:16;;;;;;;0.50;0.50;;;6.20;99.90;6.10;102811.00;;;;5013110;28;20627;-63
2022/03/23 05:47:46;;;;;;;0.70;0.70;;;6.20;99.90;6.50;102760.00;;;;5013757;28;20181;-64
2022/03/23 05:50:25;;;;;;;0.50;0.50;;;6.50;99.90;6.10;102811.00;;;;5013177;28;20266;-63
2022/03/23 05:52:51;;;;;;;0.60;0.60;;;6.30;99.90;6.30;102807.00;;;;4996578;28;20668;-63
2022/03/23 05:55:17;;;;;;;1.03;1.03;;;6.30;99.90;6.60;102821.00;;;;5013967;28;20207;-63
2022/03/23 05:57:51;;;;;;;0.57;0.57;;;6.60;99.90;6.40;102826.00;;;;5011564;28;20204;-63
2022/03/23 06:00:35;;;;;;;0.60;0.60;;;6.50;99.90;6.30;102768.00;;;;4996430;28;20265;-63
2022/03/23 06:03:03;;;;;;;0.50;0.50;;;6.50;99.90;6.20;102821.00;;;;5013842;28;20195;-63
2022/03/23 06:05:29;;;;;;;1.07;1.07;;;6.40;99.90;6.50;102825.00;;;;5012063;28;20175;-63
2022/03/23 06:07:58;;;;;;;0.60;0.60;;;6.60;99.90;7.00;102817.00;;;;5012558;28;20165;-64
2022/03/23 06:10:25;;;;;;;0.60;0.60;;;6.80;99.90;6.80;102840.00;;;;5012004;28;20632;-63
2022/03/23 06:12:51;;;;;;;0.60;0.60;;;6.90;99.90;6.80;102843.00;;;;4995952;28;20231;-63
2022/03/23 06:15:18;;;;;;;0.97;0.97;;;6.80;99.90;7.00;102841.00;;;;5012416;28;20179;-63
2022/03/23 06:17:49;;;;;;;0.90;0.90;;;7.00;99.90;7.50;102829.00;;;;5012845;28;20172;-64
2022/03/23 06:20:53;;;;;;;1.43;1.43;;;7.20;99.90;8.00;102862.00;;;;4995808;28;20552;-64
2022/03/23 06:23:26;;;;;;;0.57;0.57;;;7.70;99.90;7.80;102860.00;;;;5013475;28;20189;-64
2022/03/23 06:25:52;;;;;;;0.60;0.60;;;7.70;99.90;8.20;102860.00;;;;5012250;28;20268;-64
2022/03/23 06:28:18;;;;;;;0.60;0.60;;;7.90;99.90;7.60;102864.00;;;;5011733;28;20285;-64
2022/03/23 06:30:47;;;;;;;0.87;0.87;;;7.80;99.90;8.30;102867.00;;;;5013831;28;20175;-64
2022/03/23 06:33:13;;;;;;;1.13;1.13;;;7.90;99.90;8.90;102885.00;;;;5012186;28;20214;-64
2022/03/23 06:35:38;;;;;;;0.60;0.60;;;8.50;99.90;9.30;102877.00;;;;5012393;28;20187;-64
2022/03/23 06:38:04;;;;;;;0.50;0.50;;;8.80;99.90;9.50;102867.00;;;;5012200;28;20265;-64
2022/03/23 06:40:34;;;;;;;0.40;0.40;;;9.00;99.90;9.60;102917.00;;;;5013176;28;20180;-64
2022/03/23 06:43:00;;;;;;;0.40;0.40;;;9.30;99.90;9.90;102922.00;;;;5013157;28;20686;-64
2022/03/23 06:45:31;;;;;;;0.60;0.60;;;9.40;99.90;10.70;102933.00;;;;5011217;28;20653;-64
2022/03/23 06:47:57;;;;;;;0.30;0.30;;;10.00;99.90;10.80;102952.00;;;;4995407;28;20180;-64
2022/03/23 06:50:26;;;;;;;0.30;0.30;;;10.30;99.90;9.60;102950.00;;;;5012392;28;20183;-64
2022/03/23 06:52:52;;;;;;;0.63;0.63;;;10.00;99.90;8.70;102929.00;;;;5013035;28;20435;-63
2022/03/23 06:55:25;;;;;;;0.20;0.20;;;9.20;99.90;9.50;102938.00;;;;5015601;28;20272;-64
2022/03/23 06:57:51;;;;;;;0.20;0.20;;;9.50;99.90;8.90;102926.00;;;;5014650;28;20186;-63
2022/03/23 07:00:20;;;;;;;0.60;0.60;;;9.30;99.90;9.30;102935.00;;;;5015688;28;20181;-63
2022/03/23 07:02:50;;;;;;;3.83;3.63;;;9.40;99.90;9.30;102954.00;;;;5015944;28;20189;-63
2022/03/23 07:05:19;;;;;;;6.83;2.97;;;9.50;99.90;9.50;102912.00;;;;5015669;28;20193;-64
2022/03/23 07:10:37;;;;;;;0.20;0.20;;;10.00;99.90;10.80;102995.00;;;;5015712;28;20173;-63
2022/03/23 07:13:03;;;;;;;2.20;2.10;;;10.60;99.90;12.30;103015.00;;;;5015107;28;20218;-63
2022/03/23 07:15:32;;;;;;;2.13;2.03;;;11.50;99.90;12.10;103033.00;;;;5015828;28;20168;-63
2022/03/23 07:17:58;;;;;;;4.03;1.17;;;11.70;99.90;12.70;103066.00;;;;5014944;28;20181;-63
2022/03/23 07:20:27;;;;;;;2.77;1.13;;;12.30;99.90;13.70;103086.00;;;;4999343;28;20248;-64
2022/03/23 07:22:58;;;;;;;0.30;0.30;;;13.00;99.90;13.60;103089.00;;;;5015793;28;20645;-64
2022/03/23 07:25:25;;;;;;;10.97;10.20;;;13.00;99.90;13.60;102989.00;;;;4999302;28;20686;-64
2022/03/23 07:27:51;;;;;;;2.53;2.33;;;13.60;99.90;14.90;102983.00;;;;5016527;28;20184;-64
2022/03/23 07:30:17;;;;;;;1.73;1.70;;;14.00;99.90;16.70;102983.00;;;;5016663;28;20193;-65
2022/03/23 07:32:43;;;;;;;0.80;0.80;;;15.30;99.90;16.60;102968.00;;;;5015445;28;20208;-64
2022/03/23 07:35:43;;;;;;;0.22;0.22;;;15.90;99.90;18.10;102951.00;;;;5031098;28;20217;-64
2022/03/23 07:38:12;;;;;;;2.15;2.05;;;16.80;99.90;17.20;102958.00;;;;5014511;28;20264;-64
2022/03/23 07:40:38;;;;;;;0.57;0.57;;;17.20;99.90;16.30;102970.00;;;;5014543;28;20635;-65
2022/03/23 07:43:04;;;;;;;2.33;1.75;;;16.50;99.90;17.30;102966.00;;;;5015222;28;20233;-64
2022/03/23 07:45:33;;;;;;;0.20;0.20;;;16.70;99.90;18.20;102965.00;;;;5016112;28;20172;-64
2022/03/23 07:48:04;;;;;;;3.10;3.00;;;17.40;99.90;14.40;102989.00;;;;5015682;28;20175;-64
2022/03/23 07:50:30;;;;;;;0.55;0.55;;;15.70;99.90;16.30;102975.00;;;;4998222;28;20190;-64
2022/03/23 07:52:59;;;;;;;0.10;0.10;;;16.10;99.90;16.50;102990.00;;;;5015881;28;20210;-64
2022/03/23 07:55:25;;;;;;;22.02;16.73;;;16.00;99.90;18.20;102973.00;;;;5015227;28;20178;-64
2022/03/23 07:57:51;;;;;;;1.25;1.20;;;17.10;99.90;18.40;102969.00;;;;5016145;28;20182;-65
2022/03/23 08:00:17;;;;;;;2.33;1.83;;;17.50;99.90;18.60;102968.00;;;;5016106;28;20175;-64
2022/03/23 08:02:44;;;;;;;0.22;0.22;;;17.70;99.90;20.00;102973.00;;;;5015384;28;20245;-65
2022/03/23 08:05:10;;;;;;;0.57;0.57;;;18.60;99.20;18.80;102976.00;;;;5015220;28;20183;-64
2022/03/23 08:07:38;;;;;;;1.42;1.38;;;18.70;97.60;20.10;102976.00;;;;5012813;28;20180;-64
2022/03/23 08:10:05;;;;;;;0.45;0.45;;;19.10;97.40;20.60;102977.00;;;;5025367;28;20194;-65
2022/03/23 08:12:37;;;;;;;2.20;2.10;;;19.70;96.10;21.30;102932.00;;;;5065823;28;20666;-65
2022/03/23 08:15:04;;;;;;;0.75;0.75;;;20.30;94.90;21.90;102970.00;;;;5049686;28;20191;-64
2022/03/23 08:17:30;;;;;;;0.40;0.40;;;20.90;93.60;18.90;102994.00;;;;5024274;28;20270;-64
2022/03/23 08:22:40;;;;;;;0.10;0.10;;;19.90;92.90;21.60;102969.00;;;;5034168;28;20570;-65
2022/03/23 08:25:07;;;;;;;2.60;2.42;;;20.50;92.40;21.10;102973.00;;;;5035243;28;20179;-64
2022/03/23 08:27:33;;;;;;;0.13;0.13;;;20.70;91.20;21.40;102974.00;;;;5034318;28;20211;-65
2022/03/23 08:29:58;;;;;;;2.95;2.85;;;20.60;91.50;21.80;102962.00;;;;5035394;28;20211;-65
2022/03/23 08:32:26;;;;;;;4.05;2.83;;;21.00;90.40;21.50;102980.00;;;;5034076;28;20202;-65
2022/03/23 08:34:53;;;;;;;0.82;0.82;;;21.00;90.50;21.50;102976.00;;;;5034221;28;20182;-65
2022/03/23 08:37:21;;;;;;;0.88;0.88;;;21.10;88.00;21.30;102966.00;;;;5050667;28;20288;-65
2022/03/23 08:39:47;;;;;;;0.30;0.30;;;20.80;88.00;21.90;102975.00;;;;5035410;28;20658;-65
2022/03/23 08:42:12;;;;;;;1.65;1.58;;;21.00;88.00;21.70;102977.00;;;;5050478;28;20248;-65
2022/03/23 08:44:40;;;;;;;1.23;1.23;;;21.00;86.50;21.80;102970.00;;;;5050625;28;20186;-65
2022/03/23 08:47:06;;;;;;;0.32;0.32;;;21.30;85.70;21.60;102973.00;;;;5047686;28;20190;-65
2022/03/23 08:49:32;;;;;;;4.40;4.00;;;21.20;84.60;21.60;102975.00;;;;5024972;28;20187;-65
2022/03/23 08:51:58;;;;;;;10.73;10.05;;;21.10;84.70;21.90;102976.00;;;;5034790;28;20187;-65
2022/03/23 08:54:24;;;;;;;2.65;1.58;;;21.20;84.00;21.90;102974.00;;;;5034247;28;20179;-65
2022/03/23 08:56:53;;;;;;;1.08;1.08;;;21.40;82.90;22.60;102964.00;;;;5034595;28;20183;-65
2022/03/23 08:59:19;;;;;;;5.22;4.85;;;21.70;82.40;22.60;102975.00;;;;5050316;28;20747;-65
2022/03/23 09:01:45;;;;;;;2.95;2.75;;;22.00;81.10;22.40;102970.00;;;;5033428;28;20199;-65
2022/03/23 09:04:11;;;;;;;3.78;3.58;;;21.90;79.90;19.80;103003.00;;;;5034642;28;20185;-65
2022/03/23 09:06:36;;;;;;;2.72;2.63;;;20.80;79.80;19.90;102996.00;;;;5033135;28;20221;-65
2022/03/23 09:09:02;;;;;;;2.22;2.13;;;20.00;82.50;20.80;102994.00;;;;5034718;28;20518;-64
2022/03/23 09:11:29;;;;;;;6.22;4.13;;;20.10;83.60;21.10;102999.00;;;;5032764;28;20638;-66
2022/03/23 09:13:57;;;;;;;0.43;0.43;;;20.40;81.90;21.10;102995.00;;;;5033146;28;20205;-65
2022/03/23 09:16:25;;;;;;;1.05;1.05;;;20.70;81.20;22.40;102990.00;;;;5032557;28;20195;-65
2022/03/23 09:18:51;;;;;;;3.78;3.47;;;21.30;81.10;22.10;102995.00;;;;5034710;28;20163;-66
2022/03/23 09:21:25;;;;;;;12.77;11.88;;;21.60;78.80;21.40;102991.00;;;;5016373;28;20273;-62
2022/03/23 09:24:01;;;;;;;2.05;1.95;;;20.90;79.10;22.00;102995.00;;;;5034121;28;20186;-62
2022/03/23 09:26:28;;;;;;;4.43;4.00;;;21.30;78.50;21.20;102998.00;;;;5034491;28;20174;-62
2022/03/23 09:29:01;;;;;;;8.07;5.88;;;21.60;77.00;22.10;102987.00;;;;5034397;28;20179;-62
2022/03/23 09:31:27;;;;;;;12.02;3.70;;;21.40;78.10;22.00;102991.00;;;;5033897;28;20643;-62
2022/03/23 09:33:54;;;;;;;5.95;5.43;;;21.60;76.90;18.80;103018.00;;;;5033792;28;20197;-62
2022/03/23 09:37:47;;;;;;;3.45;3.20;;;19.90;76.90;17.10;102999.00;;;;5033888;28;20177;-61
2022/03/23 09:39:09;;;;;;;0.15;0.15;;;18.00;80.30;19.10;103003.00;;;;5033930;28;20195;-63
2022/03/23 09:41:35;;;;;;;19.75;6.65;;;18.30;82.60;19.10;103011.00;;;;5033763;28;20248;-63
2022/03/23 09:44:02;;;;;;;4.40;2.58;;;18.70;81.30;20.40;103008.00;;;;5033762;28;20261;-64
2022/03/23 09:46:34;;;;;;;2.30;1.13;;;19.70;81.80;17.60;103024.00;;;;5033888;28;20273;-62
2022/03/23 09:49:00;;;;;;;0.75;0.75;;;18.60;81.60;19.70;103010.00;;;;5033570;28;20650;-61
2022/03/23 09:51:30;;;;;;;1.88;1.77;;;18.90;84.00;21.00;103006.00;;;;5032753;28;20190;-61
2022/03/23 09:54:01;;;;;;;4.60;4.28;;;19.90;83.40;20.60;103005.00;;;;5033788;28;20265;-61
2022/03/23 09:56:29;;;;;;;5.20;3.42;;;20.60;79.70;21.80;103001.00;;;;5033657;28;20551;-62
2022/03/23 09:58:58;;;;;;;4.97;2.28;;;21.00;80.20;22.50;103000.00;;;;5033611;28;20178;-62
2022/03/23 10:01:32;;;;;;;3.70;3.45;;;21.70;79.20;22.80;102998.00;;;;5033857;28;20197;-62
2022/03/23 10:04:49;;;;;;;2.00;1.80;;;22.10;76.00;22.90;102999.00;;;;5033380;28;20262;-62
2022/03/23 10:07:33;;;;;;;2.95;2.75;;;22.50;73.20;22.20;103006.00;;;;5033718;28;20179;-62
2022/03/23 10:10:54;;;;;;;15.88;9.48;;;22.40;72.40;22.00;103006.00;;;;5033519;28;20530;-62
2022/03/23 10:13:57;;;;;;;1.25;1.25;;;21.80;72.80;21.90;103009.00;;;;5033154;28;20265;-62
2022/03/23 10:17:08;;;;;;;1.95;1.85;;;21.50;73.20;23.10;102974.00;;;;5033755;28;20182;-61
2022/03/23 10:19:44;;;;;;;4.88;2.63;;;22.30;72.60;23.70;102993.00;;;;5026261;28;20318;-61
2022/03/23 10:33:23;;;;;;;0.97;0.97;;;18.40;73.50;19.60;103029.00;;;;5070386;28;20609;-63
2022/03/23 10:35:50;;;;;;;9.55;1.60;;;19.00;75.70;20.50;103017.00;;;;5050165;28;20263;-61
2022/03/23 10:38:22;;;;;;;3.70;2.25;;;19.70;74.70;19.50;103025.00;;;;5065741;28;20202;-61
2022/03/23 10:40:51;;;;;;;11.43;6.85;;;19.70;73.50;20.30;103008.00;;;;5049195;28;20179;-62
2022/03/23 10:43:37;;;;;;;2.22;2.13;;;19.90;72.20;20.70;103004.00;;;;5050372;28;20174;-61
2022/03/23 10:46:10;;;;;;;7.38;6.07;;;20.00;72.50;20.60;102977.00;;;;5049812;28;20188;-61
2022/03/23 10:48:39;;;;;;;6.88;5.00;;;20.60;71.20;19.70;103013.00;;;;5050523;28;20645;-62
2022/03/23 10:51:07;;;;;;;6.65;4.38;;;19.90;73.10;20.80;103007.00;;;;5066060;28;20237;-62
2022/03/23 10:53:39;;;;;;;5.53;5.03;;;20.40;73.30;19.30;103009.00;;;;5050111;28;20536;-61
2022/03/23 10:56:06;;;;;;;0.10;0.10;;;19.90;70.00;20.60;103003.00;;;;5065622;28;20182;-61
2022/03/23 10:58:34;;;;;;;2.85;2.75;;;20.20;69.10;20.10;103001.00;;;;5065523;28;20167;-61
2022/03/23 11:01:06;;;;;;;5.20;3.15;;;20.00;68.20;20.60;102991.00;;;;5049945;28;20178;-61
2022/03/23 11:03:48;;;;;;;8.02;4.35;;;20.30;67.20;21.90;102992.00;;;;5065342;28;20214;-62
2022/03/23 11:06:17;;;;;;;4.57;2.65;;;21.00;71.40;21.70;102984.00;;;;5050255;28;20185;-62
2022/03/23 11:08:44;;;;;;;3.53;3.30;;;21.40;66.70;21.90;102988.00;;;;5065448;28;20175;-62
2022/03/23 11:16:44;;;;;;;5.50;4.65;;;21.70;68.80;20.60;103011.00;;;;5049703;28;20269;-61
2022/03/23 11:19:21;;;;;;;10.25;6.88;;;21.00;67.30;20.30;103017.00;;;;5049561;28;20175;-62
2022/03/23 11:22:12;;;;;;;1.33;1.23;;;20.50;67.90;21.50;102997.00;;;;5049831;28;20530;-62
2022/03/23 11:24:44;;;;;;;1.20;1.15;;;20.90;68.10;20.70;102997.00;;;;5050119;28;20213;-63
2022/03/23 11:27:19;;;;;;;5.90;5.35;;;21.00;68.30;21.00;102982.00;;;;5065106;28;20175;-61
2022/03/23 11:29:49;;;;;;;17.90;6.05;;;20.80;68.00;19.70;102997.00;;;;5048348;28;20185;-62
2022/03/23 11:32:24;;;;;;;5.88;5.30;;;20.10;67.40;20.40;102999.00;;;;5049715;28;20217;-62
2022/03/23 11:34:51;;;;;;;0.45;0.45;;;19.90;69.40;21.90;102983.00;;;;5049741;28;20185;-62
2022/03/23 11:37:21;;;;;;;0.20;0.20;;;21.00;68.50;22.40;102979.00;;;;5049643;28;20565;-62
2022/03/23 11:39:49;;;;;;;1.98;1.67;;;21.70;67.30;23.50;102983.00;;;;5064638;28;20552;-62